createdAt,value
2023-04-07T00:02:09.569Z,10.90
2023-04-07T00:04:35.824Z,10.50
2023-04-07T00:07:02.119Z,9.40
2023-04-07T00:09:28.084Z,9.30
2023-04-07T00:11:54.007Z,9.30
2023-04-07T00:14:19.932Z,9.70
2023-04-07T00:16:45.832Z,10.20
2023-04-07T00:19:11.804Z,8.80
2023-04-07T00:21:37.700Z,8.20
2023-04-07T00:24:03.791Z,10.20
2023-04-07T00:26:32.213Z,10.70
2023-04-07T00:28:59.278Z,10.70
2023-04-07T00:31:25.221Z,9.60
2023-04-07T00:33:51.333Z,9.00
2023-04-07T00:36:17.190Z,9.00
2023-04-07T00:38:43.137Z,8.60
2023-04-07T00:41:09.043Z,10.20
2023-04-07T00:43:35.390Z,9.40
2023-04-07T00:46:01.356Z,9.50
2023-04-07T00:48:27.400Z,9.80
2023-04-07T00:50:53.391Z,9.50
2023-04-07T00:53:20.410Z,11.40
2023-04-07T00:55:46.444Z,9.70
2023-04-07T00:58:12.574Z,9.70
2023-04-07T01:01:22.281Z,9.10
2023-04-07T01:04:12.772Z,8.80
2023-04-07T01:06:47.467Z,10.00
2023-04-07T01:09:25.767Z,9.40
2023-04-07T01:12:05.558Z,10.00
2023-04-07T01:14:37.953Z,9.60
2023-04-07T01:17:23.215Z,10.10
2023-04-07T01:20:08.207Z,10.00
2023-04-07T01:22:46.301Z,9.30
2023-04-07T01:26:00.961Z,9.30
2023-04-07T01:28:57.134Z,9.50
2023-04-07T01:31:25.963Z,8.90
2023-04-07T01:33:55.475Z,8.10
2023-04-07T01:36:22.737Z,8.60
2023-04-07T01:38:50.803Z,8.20
2023-04-07T01:41:18.578Z,8.30
2023-04-07T01:43:47.221Z,10.40
2023-04-07T01:46:14.756Z,8.90
2023-04-07T01:48:41.733Z,8.90
2023-04-07T01:51:10.875Z,8.40
2023-04-07T01:53:38.626Z,8.90
2023-04-07T01:56:05.057Z,9.50
2023-04-07T01:58:32.835Z,8.70
2023-04-07T02:00:59.247Z,8.80
2023-04-07T02:03:44.091Z,7.90
2023-04-07T02:06:16.169Z,7.80
2023-04-07T02:08:52.375Z,7.30
2023-04-07T02:11:21.613Z,8.80
2023-04-07T02:13:51.941Z,6.70
2023-04-07T02:16:20.859Z,7.40
2023-04-07T02:18:48.064Z,7.20
2023-04-07T02:21:15.339Z,7.10
2023-04-07T02:23:44.758Z,7.80
2023-04-07T02:26:11.036Z,7.20
2023-04-07T02:28:37.045Z,9.50
2023-04-07T02:31:02.968Z,7.20
2023-04-07T02:33:30.823Z,8.00
2023-04-07T02:35:56.718Z,6.50
2023-04-07T02:38:22.626Z,7.50
2023-04-07T02:40:48.534Z,7.40
2023-04-07T02:43:16.244Z,6.60
2023-04-07T02:45:42.957Z,6.50
2023-04-07T02:48:08.923Z,6.70
2023-04-07T02:50:35.543Z,8.00
2023-04-07T02:53:01.494Z,6.70
2023-04-07T02:55:27.456Z,7.60
2023-04-07T02:57:53.472Z,7.40
2023-04-07T03:00:37.743Z,8.40
2023-04-07T03:03:08.332Z,7.00
2023-04-07T03:05:36.148Z,8.10
2023-04-07T03:08:02.633Z,10.80
2023-04-07T03:10:29.031Z,7.60
2023-04-07T03:12:55.078Z,6.90
2023-04-07T03:15:21.541Z,8.80
2023-04-07T03:17:47.618Z,7.50
2023-04-07T03:20:15.302Z,7.20
2023-04-07T03:22:41.397Z,9.90
2023-04-07T03:25:10.489Z,8.00
2023-04-07T03:27:36.450Z,8.00
2023-04-07T03:30:04.225Z,8.50
2023-04-07T03:32:30.437Z,7.80
2023-04-07T03:34:56.549Z,8.10
2023-04-07T03:37:22.507Z,9.00
2023-04-07T03:39:50.306Z,9.80
2023-04-07T03:42:28.920Z,8.00
2023-04-07T03:45:00.131Z,8.50
2023-04-07T03:47:26.431Z,8.30
2023-04-07T03:49:56.749Z,7.90
2023-04-07T03:52:22.855Z,8.90
2023-04-07T03:54:51.583Z,8.30
2023-04-07T03:57:18.064Z,9.20
2023-04-07T03:59:50.308Z,7.50
2023-04-07T04:02:18.397Z,9.20
2023-04-07T04:04:45.847Z,9.40
2023-04-07T04:07:12.387Z,8.30
2023-04-07T04:09:47.884Z,8.00
2023-04-07T04:12:14.154Z,10.50
2023-04-07T04:14:47.334Z,9.50
2023-04-07T04:17:13.740Z,8.10
2023-04-07T04:19:43.569Z,9.70
2023-04-07T04:22:25.814Z,8.80
2023-04-07T04:24:53.995Z,8.40
2023-04-07T04:27:20.569Z,8.80
2023-04-07T04:29:51.016Z,9.60
2023-04-07T04:32:17.730Z,9.40
2023-04-07T04:34:44.021Z,8.70
2023-04-07T04:37:11.014Z,10.10
2023-04-07T04:39:39.100Z,11.30
2023-04-07T04:42:05.388Z,10.00
2023-04-07T04:44:34.031Z,11.20
2023-04-07T04:47:00.824Z,11.10
2023-04-07T04:49:27.941Z,8.90
2023-04-07T04:51:54.937Z,9.90
2023-04-07T04:54:20.967Z,9.60
2023-04-07T04:56:47.777Z,11.30
2023-04-07T04:59:13.738Z,9.70
2023-04-07T05:02:00.897Z,8.80
2023-04-07T05:04:27.793Z,10.00
2023-04-07T05:06:59.831Z,10.60
2023-04-07T05:09:27.505Z,10.50
2023-04-07T05:11:53.531Z,8.40
2023-04-07T05:14:20.180Z,10.80
2023-04-07T05:16:52.175Z,9.30
2023-04-07T05:19:21.022Z,11.80
2023-04-07T05:21:47.787Z,9.50
2023-04-07T05:24:14.469Z,9.70
2023-04-07T05:26:40.418Z,10.50
2023-04-07T05:29:06.439Z,9.50
2023-04-07T05:31:35.320Z,9.90
2023-04-07T05:34:02.618Z,9.70
2023-04-07T05:36:34.203Z,9.80
2023-04-07T05:39:00.281Z,9.50
2023-04-07T05:41:26.652Z,8.60
2023-04-07T05:43:52.852Z,8.60
2023-04-07T05:46:18.908Z,8.30
2023-04-07T05:48:49.933Z,9.70
2023-04-07T05:51:16.096Z,7.90
2023-04-07T05:53:42.361Z,10.00
2023-04-07T05:56:08.520Z,9.30
2023-04-07T05:58:45.573Z,9.10
2023-04-07T06:01:12.173Z,8.70
2023-04-07T06:03:40.285Z,10.30
2023-04-07T06:06:14.812Z,10.10
2023-04-07T06:08:41.117Z,10.40
2023-04-07T06:11:06.994Z,9.20
2023-04-07T06:13:33.158Z,9.70
2023-04-07T06:15:59.069Z,9.70
2023-04-07T06:18:25.060Z,9.70
2023-04-07T06:20:51.030Z,9.10
2023-04-07T06:23:17.810Z,9.80
2023-04-07T06:25:44.789Z,9.60
2023-04-07T06:28:10.902Z,9.90
2023-04-07T06:30:36.936Z,10.60
2023-04-07T06:33:03.495Z,11.30
2023-04-07T06:35:29.594Z,9.40
2023-04-07T06:37:56.378Z,10.90
2023-04-07T06:40:22.288Z,9.80
2023-04-07T06:42:48.166Z,10.40
2023-04-07T06:45:28.047Z,9.00
2023-04-07T06:47:53.991Z,9.30
2023-04-07T06:50:21.653Z,9.20
2023-04-07T06:52:47.921Z,9.80
2023-04-07T06:55:13.948Z,8.90
2023-04-07T06:57:40.041Z,10.60
2023-04-07T07:00:07.342Z,10.00
2023-04-07T07:02:34.287Z,9.30
2023-04-07T07:05:00.933Z,10.70
2023-04-07T07:07:26.830Z,8.80
2023-04-07T07:09:53.622Z,9.40
2023-04-07T07:12:19.611Z,9.90
2023-04-07T07:14:45.484Z,8.60
2023-04-07T07:17:11.383Z,9.40
2023-04-07T07:19:38.180Z,9.00
2023-04-07T07:22:04.179Z,9.50
2023-04-07T07:24:33.452Z,9.80
2023-04-07T07:27:01.720Z,9.30
2023-04-07T07:29:27.617Z,9.50
2023-04-07T07:31:54.507Z,9.50
2023-04-07T07:34:21.362Z,9.40
2023-04-07T07:36:47.238Z,9.00
2023-04-07T07:39:13.654Z,9.00
2023-04-07T07:41:41.059Z,7.60
2023-04-07T07:44:07.078Z,8.50
2023-04-07T07:46:33.154Z,9.00
2023-04-07T07:48:59.292Z,9.10
2023-04-07T07:51:25.403Z,10.30
2023-04-07T07:53:51.985Z,8.90
2023-04-07T07:56:17.900Z,10.50
2023-04-07T07:58:43.983Z,8.90
2023-04-07T08:01:09.959Z,8.80
2023-04-07T08:03:36.025Z,9.90
2023-04-07T08:06:02.642Z,9.30
2023-04-07T08:08:28.619Z,9.50
2023-04-07T08:10:54.477Z,10.10
2023-04-07T08:13:20.592Z,9.40
2023-04-07T08:15:46.598Z,8.20
2023-04-07T08:18:12.627Z,10.30
2023-04-07T08:20:38.645Z,8.70
2023-04-07T08:23:04.638Z,8.40
2023-04-07T08:25:30.573Z,9.00
2023-04-07T08:27:56.582Z,8.20
2023-04-07T08:30:22.646Z,10.00
2023-04-07T08:32:49.013Z,9.30
2023-04-07T08:35:14.947Z,9.60
2023-04-07T08:37:43.891Z,9.40
2023-04-07T08:40:10.946Z,9.70
2023-04-07T08:42:43.119Z,8.50
2023-04-07T08:45:09.940Z,8.90
2023-04-07T08:47:37.897Z,8.70
2023-04-07T08:50:10.443Z,8.30
2023-04-07T08:52:54.203Z,9.00
2023-04-07T08:55:20.505Z,9.30
2023-04-07T08:57:47.227Z,8.30
2023-04-07T09:00:14.552Z,8.00
2023-04-07T09:02:44.847Z,9.10
2023-04-07T09:05:14.032Z,9.90
2023-04-07T09:07:42.494Z,8.80
2023-04-07T09:10:09.296Z,9.10
2023-04-07T09:12:35.620Z,9.40
2023-04-07T09:15:01.702Z,8.90
2023-04-07T09:17:29.113Z,8.60
2023-04-07T09:19:57.915Z,8.80
2023-04-07T09:22:37.992Z,8.50
2023-04-07T09:25:19.323Z,8.90
2023-04-07T09:28:03.500Z,8.50
2023-04-07T09:30:32.552Z,8.30
2023-04-07T09:33:00.948Z,9.40
2023-04-07T09:35:27.815Z,8.50
2023-04-07T09:38:08.392Z,9.30
2023-04-07T09:40:36.700Z,7.90
2023-04-07T09:43:05.246Z,7.80
2023-04-07T09:45:35.435Z,9.50
2023-04-07T09:48:19.505Z,8.10
2023-04-07T09:50:48.835Z,8.40
2023-04-07T09:53:16.133Z,7.80
2023-04-07T09:55:43.176Z,7.80
2023-04-07T09:58:16.128Z,8.80
2023-04-07T10:00:43.001Z,7.60
2023-04-07T10:03:09.293Z,8.80
2023-04-07T10:05:38.130Z,7.80
2023-04-07T10:08:06.250Z,8.40
2023-04-07T10:10:32.481Z,8.90
2023-04-07T10:12:58.903Z,7.80
2023-04-07T10:15:25.012Z,8.50
2023-04-07T10:17:52.021Z,8.90
2023-04-07T10:20:20.186Z,8.10
2023-04-07T10:22:50.614Z,8.20
2023-04-07T10:25:21.022Z,8.90
2023-04-07T10:27:58.681Z,7.70
2023-04-07T10:30:30.401Z,8.10
2023-04-07T10:32:57.347Z,8.60
2023-04-07T10:35:23.477Z,7.00
2023-04-07T10:38:07.923Z,8.70
2023-04-07T10:40:35.628Z,8.10
2023-04-07T10:43:01.854Z,7.90
2023-04-07T10:45:46.554Z,8.90
2023-04-07T10:48:13.822Z,7.50
2023-04-07T10:50:39.913Z,8.40
2023-04-07T10:53:07.719Z,9.20
2023-04-07T10:55:44.372Z,9.20
2023-04-07T10:58:25.547Z,8.00
2023-04-07T11:01:00.890Z,8.30
2023-04-07T11:03:29.442Z,8.60
2023-04-07T11:06:13.043Z,7.80
2023-04-07T11:08:41.173Z,8.10
2023-04-07T11:11:10.478Z,6.80
2023-04-07T11:13:42.162Z,8.00
2023-04-07T11:16:09.226Z,8.10
2023-04-07T11:18:36.905Z,7.80
2023-04-07T11:21:05.523Z,7.00
2023-04-07T11:23:42.404Z,10.80
2023-04-07T11:26:10.989Z,8.60
2023-04-07T11:28:48.521Z,8.90
2023-04-07T11:31:30.555Z,9.00
2023-04-07T11:33:59.343Z,8.90
2023-04-07T11:36:44.618Z,8.30
2023-04-07T11:39:21.617Z,9.00
2023-04-07T11:41:49.977Z,7.00
2023-04-07T11:44:16.304Z,7.70
2023-04-07T11:47:11.884Z,8.90
2023-04-07T11:49:46.431Z,8.20
2023-04-07T11:52:12.282Z,6.80
2023-04-07T11:54:43.670Z,8.60
2023-04-07T11:57:12.043Z,7.60
2023-04-07T11:59:39.481Z,8.10
2023-04-07T12:02:06.186Z,8.60
2023-04-07T12:04:32.322Z,8.50
2023-04-07T12:07:11.213Z,8.20
2023-04-07T12:09:39.778Z,10.50
2023-04-07T12:12:09.320Z,8.20
2023-04-07T12:14:36.661Z,8.30
2023-04-07T12:17:03.106Z,8.40
2023-04-07T12:19:35.019Z,8.30
2023-04-07T12:22:00.929Z,8.40
2023-04-07T12:24:28.021Z,8.40
2023-04-07T12:26:53.911Z,8.40
2023-04-07T12:29:19.802Z,8.10
2023-04-07T12:31:46.291Z,8.40
2023-04-07T12:34:13.085Z,7.40
2023-04-07T12:36:38.970Z,8.20
2023-04-07T12:39:05.081Z,8.50
2023-04-07T12:41:31.832Z,7.80
2023-04-07T12:43:57.802Z,8.10
2023-04-07T12:46:23.884Z,8.50
2023-04-07T12:48:50.730Z,7.20
2023-04-07T12:51:16.786Z,7.60
2023-04-07T12:53:42.890Z,7.60
2023-04-07T12:56:09.656Z,9.00
2023-04-07T12:58:35.709Z,9.60
2023-04-07T13:01:01.685Z,8.00
2023-04-07T13:03:27.803Z,8.10
2023-04-07T13:05:54.678Z,7.30
2023-04-07T13:08:21.302Z,8.40
2023-04-07T13:10:47.149Z,7.70
2023-04-07T13:13:13.037Z,8.20
2023-04-07T13:15:38.908Z,7.80
2023-04-07T13:18:04.866Z,8.10
2023-04-07T13:20:30.893Z,7.50
2023-04-07T13:25:26.789Z,9.60
2023-04-07T13:27:52.719Z,9.70
2023-04-07T13:30:20.303Z,9.40
2023-04-07T13:32:48.497Z,9.70
2023-04-07T13:35:17.635Z,8.70
2023-04-07T13:37:43.943Z,9.70
2023-04-07T13:40:12.702Z,8.50
2023-04-07T13:42:39.582Z,9.20
2023-04-07T13:45:06.576Z,8.80
2023-04-07T13:47:33.797Z,8.80
2023-04-07T13:50:01.546Z,9.20
2023-04-07T13:52:28.145Z,8.70
2023-04-07T13:54:54.188Z,9.10
2023-04-07T13:57:20.356Z,8.10
2023-04-07T13:59:48.496Z,8.20
2023-04-07T14:02:14.852Z,8.50
2023-04-07T14:04:40.825Z,8.90
2023-04-07T14:07:06.718Z,8.90
2023-04-07T14:09:32.604Z,7.30
2023-04-07T14:11:58.953Z,8.50
2023-04-07T14:14:24.973Z,8.70
2023-04-07T14:16:51.773Z,9.50
2023-04-07T14:19:24.226Z,7.50
2023-04-07T14:21:50.974Z,8.50
2023-04-07T14:24:17.339Z,7.30
2023-04-07T14:26:45.184Z,8.30
2023-04-07T14:29:12.466Z,7.80
2023-04-07T14:31:38.501Z,9.20
2023-04-07T14:34:04.433Z,8.10
2023-04-07T14:36:31.195Z,7.10
2023-04-07T14:38:57.724Z,7.50
2023-04-07T14:41:24.336Z,7.70
2023-04-07T14:43:55.405Z,8.70
2023-04-07T14:46:28.561Z,7.50
2023-04-07T14:48:56.525Z,7.50
2023-04-07T14:51:22.370Z,7.60
2023-04-07T14:53:55.051Z,8.00
2023-04-07T14:56:21.958Z,7.10
2023-04-07T14:58:48.083Z,8.00
2023-04-07T15:01:14.047Z,8.20
2023-04-07T15:03:40.033Z,8.50
2023-04-07T15:06:11.425Z,7.40
2023-04-07T15:08:37.934Z,8.10
2023-04-07T15:11:07.816Z,8.70
2023-04-07T15:13:35.456Z,8.00
2023-04-07T15:16:13.744Z,8.20
2023-04-07T15:18:44.677Z,7.10
2023-04-07T15:21:12.813Z,7.50
2023-04-07T15:23:40.858Z,6.80
2023-04-07T15:26:08.621Z,8.10
2023-04-07T15:28:34.637Z,8.30
2023-04-07T15:31:00.793Z,7.70
2023-04-07T15:33:27.273Z,8.30
2023-04-07T15:35:53.290Z,8.40
2023-04-07T15:38:19.530Z,7.90
2023-04-07T15:40:46.086Z,7.30
2023-04-07T15:43:12.202Z,8.60
2023-04-07T15:45:43.782Z,8.10
2023-04-07T15:48:11.349Z,8.60
2023-04-07T15:50:37.354Z,7.90
2023-04-07T15:53:04.078Z,7.80
2023-04-07T15:55:36.547Z,8.50
2023-04-07T15:58:03.174Z,8.80
2023-04-07T16:00:33.426Z,7.60
2023-04-07T16:03:02.189Z,8.20
2023-04-07T16:05:28.845Z,8.50
2023-04-07T16:07:54.975Z,7.90
2023-04-07T16:10:20.890Z,8.50
2023-04-07T16:12:47.646Z,6.70
2023-04-07T16:15:16.786Z,7.30
2023-04-07T16:17:47.894Z,7.00
2023-04-07T16:20:15.169Z,8.40
2023-04-07T16:22:49.787Z,9.10
2023-04-07T16:25:17.345Z,7.50
2023-04-07T16:27:44.369Z,9.70
2023-04-07T16:30:13.102Z,8.90
2023-04-07T16:32:42.931Z,7.10
2023-04-07T16:35:10.819Z,8.60
2023-04-07T16:37:37.993Z,8.10
2023-04-07T16:40:04.997Z,8.80
2023-04-07T16:42:31.137Z,8.80
2023-04-07T16:44:57.277Z,7.10
2023-04-07T16:47:25.087Z,7.70
2023-04-07T16:49:51.176Z,8.50
2023-04-07T16:52:20.057Z,7.90
2023-04-07T16:54:46.645Z,7.70
2023-04-07T16:57:12.682Z,7.90
2023-04-07T16:59:39.133Z,6.80
2023-04-07T17:02:11.091Z,7.50
2023-04-07T17:04:38.453Z,8.00
2023-04-07T17:07:05.411Z,8.10
2023-04-07T17:09:31.938Z,7.10
2023-04-07T17:11:59.042Z,8.20
2023-04-07T17:14:25.030Z,7.90
2023-04-07T17:16:50.922Z,8.40
2023-04-07T17:19:16.907Z,7.90
2023-04-07T17:21:43.256Z,7.60
2023-04-07T17:24:09.482Z,9.10
2023-04-07T17:26:35.345Z,9.00
2023-04-07T17:29:01.264Z,7.50
2023-04-07T17:31:27.326Z,8.10
2023-04-07T17:33:53.295Z,8.70
2023-04-07T17:36:19.286Z,9.20
2023-04-07T17:38:45.338Z,7.90
2023-04-07T17:41:11.612Z,8.20
2023-04-07T17:43:37.737Z,9.20
2023-04-07T17:46:04.036Z,7.50
2023-04-07T17:48:31.456Z,9.20
2023-04-07T17:50:57.851Z,7.80
2023-04-07T17:53:23.954Z,8.60
2023-04-07T17:55:50.020Z,7.80
2023-04-07T17:58:16.437Z,10.50
2023-04-07T18:00:42.353Z,9.60
2023-04-07T18:03:10.461Z,8.70
2023-04-07T18:05:36.980Z,8.00
2023-04-07T18:08:03.092Z,7.90
2023-04-07T18:10:28.994Z,8.80
2023-04-07T18:12:55.521Z,7.30
2023-04-07T18:15:21.777Z,9.40
2023-04-07T18:17:52.168Z,8.30
2023-04-07T18:20:19.142Z,7.90
2023-04-07T18:22:45.089Z,7.90
2023-04-07T18:25:11.713Z,8.70
2023-04-07T18:27:37.867Z,8.10
2023-04-07T18:30:04.573Z,9.60
2023-04-07T18:32:30.506Z,8.60
2023-04-07T18:34:56.453Z,10.00
2023-04-07T18:37:22.419Z,9.80
2023-04-07T18:39:48.341Z,8.10
2023-04-07T18:42:14.327Z,8.40
2023-04-07T18:44:40.242Z,9.40
2023-04-07T18:47:06.288Z,8.00
2023-04-07T18:49:32.395Z,8.10
2023-04-07T18:51:58.244Z,9.70
2023-04-07T18:54:26.296Z,10.00
2023-04-07T18:56:52.194Z,9.00
2023-04-07T18:59:18.069Z,9.60
2023-04-07T19:01:44.061Z,8.40
2023-04-07T19:04:10.489Z,9.20
2023-04-07T19:06:36.918Z,8.60
2023-04-07T19:09:03.644Z,8.30
2023-04-07T19:11:30.079Z,8.70
2023-04-07T19:13:56.156Z,8.10
2023-04-07T19:16:26.223Z,10.70
2023-04-07T19:18:52.906Z,9.50
2023-04-07T19:21:19.604Z,9.10
2023-04-07T19:23:46.865Z,8.90
2023-04-07T19:26:13.489Z,9.40
2023-04-07T19:28:40.778Z,9.80
2023-04-07T19:31:08.725Z,7.90
2023-04-07T19:33:34.933Z,8.60
2023-04-07T19:36:01.608Z,9.50
2023-04-07T19:38:27.608Z,9.10
2023-04-07T19:40:53.594Z,9.80
2023-04-07T19:43:19.781Z,9.50
2023-04-07T19:45:48.980Z,9.70
2023-04-07T19:48:16.788Z,8.40
2023-04-07T19:50:47.576Z,9.00
2023-04-07T19:53:15.500Z,11.20
2023-04-07T19:55:46.323Z,9.10
2023-04-07T19:58:12.723Z,10.20
2023-04-07T20:00:40.087Z,10.70
2023-04-07T20:03:06.363Z,11.90
2023-04-07T20:05:33.624Z,10.30
2023-04-07T20:08:03.090Z,11.40
2023-04-07T20:10:29.786Z,10.50
2023-04-07T20:12:55.745Z,11.20
2023-04-07T20:15:24.211Z,10.40
2023-04-07T20:17:51.081Z,9.60
2023-04-07T20:20:17.567Z,10.00
2023-04-07T20:22:44.034Z,10.90
2023-04-07T20:25:10.279Z,11.30
2023-04-07T20:27:36.681Z,10.20
2023-04-07T20:30:02.860Z,9.00
2023-04-07T20:32:28.798Z,11.30
2023-04-07T20:34:54.763Z,11.40
2023-04-07T20:37:22.039Z,9.80
2023-04-07T20:39:48.716Z,12.30
2023-04-07T20:42:18.282Z,11.60
2023-04-07T20:44:47.855Z,10.90
2023-04-07T20:47:13.709Z,11.30
2023-04-07T20:49:40.526Z,10.90
2023-04-07T20:52:07.149Z,13.40
2023-04-07T20:54:34.683Z,12.20
2023-04-07T20:57:01.485Z,12.40
2023-04-07T20:59:28.390Z,12.10
2023-04-07T21:01:55.374Z,10.60
2023-04-07T21:04:23.763Z,12.30
2023-04-07T21:06:49.802Z,11.60
2023-04-07T21:09:15.873Z,11.40
2023-04-07T21:11:42.170Z,10.80
2023-04-07T21:14:08.107Z,12.40
2023-04-07T21:16:33.941Z,11.60
2023-04-07T21:19:00.184Z,10.60
2023-04-07T21:21:26.943Z,13.60
2023-04-07T21:23:52.851Z,10.70
2023-04-07T21:26:19.005Z,12.90
2023-04-07T21:28:45.005Z,12.10
2023-04-07T21:31:26.885Z,11.10
2023-04-07T21:33:53.045Z,10.60
2023-04-07T21:36:19.070Z,11.70
2023-04-07T21:38:45.133Z,12.10
2023-04-07T21:41:11.969Z,11.40
2023-04-07T21:43:37.942Z,11.40
2023-04-07T21:46:03.953Z,11.00
2023-04-07T21:48:30.039Z,10.30
2023-04-07T21:50:56.502Z,11.30
2023-04-07T21:53:22.331Z,13.00
2023-04-07T21:55:48.256Z,12.30
2023-04-07T21:58:14.149Z,13.00
2023-04-07T22:00:40.226Z,12.10
2023-04-07T22:03:07.105Z,11.90
2023-04-07T22:05:33.815Z,11.50
2023-04-07T22:08:00.419Z,12.70
2023-04-07T22:10:26.377Z,12.60
2023-04-07T22:12:52.346Z,12.50
2023-04-07T22:15:18.462Z,11.00
2023-04-07T22:17:44.556Z,11.80
2023-04-07T22:20:11.050Z,12.30
2023-04-07T22:22:37.562Z,12.20
2023-04-07T22:25:04.435Z,15.10
2023-04-07T22:27:30.489Z,13.30
2023-04-07T22:29:56.450Z,13.30
2023-04-07T22:32:22.312Z,13.00
2023-04-07T22:34:48.463Z,12.10
2023-04-07T22:37:15.037Z,14.40
2023-04-07T22:39:40.975Z,13.60
2023-04-07T22:42:06.863Z,13.80
2023-04-07T22:44:32.715Z,15.80
2023-04-07T22:46:58.757Z,12.50
2023-04-07T22:49:24.881Z,12.90
2023-04-07T22:51:50.949Z,14.10
2023-04-07T22:54:17.435Z,14.70
2023-04-07T22:56:44.148Z,13.00
2023-04-07T22:59:10.191Z,13.60
2023-04-07T23:01:36.129Z,15.10
2023-04-07T23:04:02.119Z,14.10
2023-04-07T23:06:28.083Z,15.40
2023-04-07T23:08:55.051Z,14.40
2023-04-07T23:11:22.445Z,13.60
2023-04-07T23:13:48.789Z,14.20
2023-04-07T23:16:15.705Z,13.90
2023-04-07T23:18:42.254Z,12.90
2023-04-07T23:21:09.292Z,13.40
2023-04-07T23:23:35.900Z,13.80
2023-04-07T23:26:02.152Z,12.10
2023-04-07T23:28:28.328Z,13.40
2023-04-07T23:30:54.411Z,11.90
2023-04-07T23:33:21.033Z,12.60
2023-04-07T23:35:46.992Z,14.20
2023-04-07T23:38:13.087Z,14.40
2023-04-07T23:40:39.035Z,11.50
2023-04-07T23:43:06.045Z,13.70
2023-04-07T23:45:32.476Z,12.90
2023-04-07T23:47:58.662Z,15.50
2023-04-07T23:50:26.796Z,14.50
2023-04-07T23:52:54.341Z,14.20
2023-04-07T23:55:20.294Z,13.00
2023-04-07T23:57:46.280Z,12.70
